sensor_id;sensor_type;location;lat;lon;timestamp;P1;durP1;ratioP1;P2;durP2;ratioP2
43801;SDS011;29429;51.074;13.764;2022-07-23T00:00:19;3.97;;;2.88;;
43801;SDS011;29429;51.074;13.764;2022-07-23T00:02:47;3.10;;;2.80;;
43801;SDS011;29429;51.074;13.764;2022-07-23T00:05:14;4.82;;;2.95;;
43801;SDS011;29429;51.074;13.764;2022-07-23T00:07:41;4.45;;;3.00;;
43801;SDS011;29429;51.074;13.764;2022-07-23T00:10:09;3.72;;;2.90;;
43801;SDS011;29429;51.074;13.764;2022-07-23T00:12:36;3.33;;;2.78;;
43801;SDS011;29429;51.074;13.764;2022-07-23T00:15:17;3.75;;;3.00;;
43801;SDS011;29429;51.074;13.764;2022-07-23T00:17:45;3.22;;;2.92;;
43801;SDS011;29429;51.074;13.764;2022-07-23T00:20:12;3.42;;;2.90;;
43801;SDS011;29429;51.074;13.764;2022-07-23T00:22:46;3.63;;;3.00;;
43801;SDS011;29429;51.074;13.764;2022-07-23T00:25:19;3.17;;;2.80;;
43801;SDS011;29429;51.074;13.764;2022-07-23T00:27:54;4.93;;;3.28;;
43801;SDS011;29429;51.074;13.764;2022-07-23T00:30:22;3.70;;;3.33;;
43801;SDS011;29429;51.074;13.764;2022-07-23T00:32:50;3.80;;;3.13;;
43801;SDS011;29429;51.074;13.764;2022-07-23T00:35:22;4.13;;;2.90;;
43801;SDS011;29429;51.074;13.764;2022-07-23T00:37:56;3.30;;;3.00;;
43801;SDS011;29429;51.074;13.764;2022-07-23T00:40:24;4.97;;;3.28;;
43801;SDS011;29429;51.074;13.764;2022-07-23T00:42:53;5.07;;;3.42;;
43801;SDS011;29429;51.074;13.764;2022-07-23T00:45:19;6.47;;;3.22;;
43801;SDS011;29429;51.074;13.764;2022-07-23T00:47:47;4.05;;;3.63;;
43801;SDS011;29429;51.074;13.764;2022-07-23T00:50:15;4.03;;;3.60;;
43801;SDS011;29429;51.074;13.764;2022-07-23T00:52:42;5.22;;;3.53;;
43801;SDS011;29429;51.074;13.764;2022-07-23T00:55:09;4.60;;;3.50;;
43801;SDS011;29429;51.074;13.764;2022-07-23T00:57:38;4.53;;;3.65;;
43801;SDS011;29429;51.074;13.764;2022-07-23T01:00:08;4.68;;;3.38;;
43801;SDS011;29429;51.074;13.764;2022-07-23T01:02:39;5.07;;;3.40;;
43801;SDS011;29429;51.074;13.764;2022-07-23T01:05:06;6.78;;;3.70;;
43801;SDS011;29429;51.074;13.764;2022-07-23T01:07:34;4.43;;;3.60;;
43801;SDS011;29429;51.074;13.764;2022-07-23T01:10:02;4.63;;;3.85;;
43801;SDS011;29429;51.074;13.764;2022-07-23T01:12:32;4.45;;;3.60;;
43801;SDS011;29429;51.074;13.764;2022-07-23T01:14:59;5.50;;;3.83;;
43801;SDS011;29429;51.074;13.764;2022-07-23T01:17:28;4.43;;;3.58;;
43801;SDS011;29429;51.074;13.764;2022-07-23T01:19:55;6.88;;;3.95;;
43801;SDS011;29429;51.074;13.764;2022-07-23T01:22:21;4.03;;;3.63;;
43801;SDS011;29429;51.074;13.764;2022-07-23T01:24:49;4.65;;;3.70;;
43801;SDS011;29429;51.074;13.764;2022-07-23T01:27:21;4.07;;;3.67;;
43801;SDS011;29429;51.074;13.764;2022-07-23T01:29:53;6.65;;;3.90;;
43801;SDS011;29429;51.074;13.764;2022-07-23T01:32:22;4.00;;;3.53;;
43801;SDS011;29429;51.074;13.764;2022-07-23T01:34:49;5.25;;;3.72;;
43801;SDS011;29429;51.074;13.764;2022-07-23T01:37:16;5.93;;;3.53;;
43801;SDS011;29429;51.074;13.764;2022-07-23T01:39:43;5.47;;;4.40;;
43801;SDS011;29429;51.074;13.764;2022-07-23T01:42:11;4.20;;;3.80;;
43801;SDS011;29429;51.074;13.764;2022-07-23T01:44:39;4.57;;;4.05;;
43801;SDS011;29429;51.074;13.764;2022-07-23T01:47:09;4.15;;;3.75;;
43801;SDS011;29429;51.074;13.764;2022-07-23T01:49:36;3.90;;;3.47;;
43801;SDS011;29429;51.074;13.764;2022-07-23T01:52:27;5.15;;;3.90;;
43801;SDS011;29429;51.074;13.764;2022-07-23T01:54:54;4.93;;;4.00;;
43801;SDS011;29429;51.074;13.764;2022-07-23T01:57:21;4.20;;;3.80;;
43801;SDS011;29429;51.074;13.764;2022-07-23T01:59:48;5.53;;;4.32;;
43801;SDS011;29429;51.074;13.764;2022-07-23T02:02:18;4.78;;;3.83;;
43801;SDS011;29429;51.074;13.764;2022-07-23T02:04:45;4.88;;;4.20;;
43801;SDS011;29429;51.074;13.764;2022-07-23T02:07:14;6.95;;;4.43;;
43801;SDS011;29429;51.074;13.764;2022-07-23T02:09:42;5.18;;;4.28;;
43801;SDS011;29429;51.074;13.764;2022-07-23T02:12:11;5.40;;;3.83;;
43801;SDS011;29429;51.074;13.764;2022-07-23T02:14:38;4.00;;;3.60;;
43801;SDS011;29429;51.074;13.764;2022-07-23T02:17:05;4.20;;;3.80;;
43801;SDS011;29429;51.074;13.764;2022-07-23T02:19:34;6.68;;;3.90;;
43801;SDS011;29429;51.074;13.764;2022-07-23T02:22:01;3.85;;;3.50;;
43801;SDS011;29429;51.074;13.764;2022-07-23T02:24:28;4.07;;;3.72;;
43801;SDS011;29429;51.074;13.764;2022-07-23T02:26:55;5.03;;;3.90;;
43801;SDS011;29429;51.074;13.764;2022-07-23T02:29:22;4.88;;;3.60;;
43801;SDS011;29429;51.074;13.764;2022-07-23T02:31:48;4.80;;;4.15;;
43801;SDS011;29429;51.074;13.764;2022-07-23T02:34:16;4.32;;;3.58;;
43801;SDS011;29429;51.074;13.764;2022-07-23T02:36:43;6.57;;;3.75;;
43801;SDS011;29429;51.074;13.764;2022-07-23T02:39:10;4.68;;;4.28;;
43801;SDS011;29429;51.074;13.764;2022-07-23T02:41:38;4.30;;;3.90;;
43801;SDS011;29429;51.074;13.764;2022-07-23T02:44:04;4.38;;;3.97;;
43801;SDS011;29429;51.074;13.764;2022-07-23T02:46:31;4.43;;;4.03;;
43801;SDS011;29429;51.074;13.764;2022-07-23T02:49:00;5.32;;;4.10;;
43801;SDS011;29429;51.074;13.764;2022-07-23T02:51:29;6.43;;;4.32;;
43801;SDS011;29429;51.074;13.764;2022-07-23T02:54:01;4.85;;;4.35;;
43801;SDS011;29429;51.074;13.764;2022-07-23T02:56:28;4.95;;;4.32;;
43801;SDS011;29429;51.074;13.764;2022-07-23T02:58:56;4.80;;;3.90;;
43801;SDS011;29429;51.074;13.764;2022-07-23T03:01:23;5.05;;;3.80;;
43801;SDS011;29429;51.074;13.764;2022-07-23T03:03:50;4.18;;;3.78;;
43801;SDS011;29429;51.074;13.764;2022-07-23T03:06:17;3.92;;;3.63;;
43801;SDS011;29429;51.074;13.764;2022-07-23T03:08:44;6.15;;;3.80;;
43801;SDS011;29429;51.074;13.764;2022-07-23T03:11:11;4.20;;;3.80;;
43801;SDS011;29429;51.074;13.764;2022-07-23T03:13:40;7.15;;;4.28;;
43801;SDS011;29429;51.074;13.764;2022-07-23T03:16:07;4.13;;;3.80;;
43801;SDS011;29429;51.074;13.764;2022-07-23T03:18:35;3.90;;;3.47;;
43801;SDS011;29429;51.074;13.764;2022-07-23T03:21:06;5.47;;;3.65;;
43801;SDS011;29429;51.074;13.764;2022-07-23T03:23:33;4.30;;;3.90;;
43801;SDS011;29429;51.074;13.764;2022-07-23T03:26:01;4.95;;;3.80;;
43801;SDS011;29429;51.074;13.764;2022-07-23T03:28:28;4.88;;;3.97;;
43801;SDS011;29429;51.074;13.764;2022-07-23T03:30:54;4.68;;;3.85;;
43801;SDS011;29429;51.074;13.764;2022-07-23T03:33:22;4.47;;;4.05;;
43801;SDS011;29429;51.074;13.764;2022-07-23T03:35:50;5.32;;;4.00;;
43801;SDS011;29429;51.074;13.764;2022-07-23T03:38:25;4.90;;;3.63;;
43801;SDS011;29429;51.074;13.764;2022-07-23T03:40:53;4.25;;;3.85;;
43801;SDS011;29429;51.074;13.764;2022-07-23T03:43:20;4.63;;;3.83;;
43801;SDS011;29429;51.074;13.764;2022-07-23T03:45:47;4.10;;;3.80;;
43801;SDS011;29429;51.074;13.764;2022-07-23T03:48:14;4.22;;;3.83;;
43801;SDS011;29429;51.074;13.764;2022-07-23T03:50:43;4.68;;;3.90;;
43801;SDS011;29429;51.074;13.764;2022-07-23T03:53:10;4.95;;;4.40;;
43801;SDS011;29429;51.074;13.764;2022-07-23T03:55:37;5.97;;;4.00;;
43801;SDS011;29429;51.074;13.764;2022-07-23T03:58:04;4.20;;;3.80;;
43801;SDS011;29429;51.074;13.764;2022-07-23T04:00:31;4.25;;;3.75;;
43801;SDS011;29429;51.074;13.764;2022-07-23T04:02:58;4.40;;;3.60;;
43801;SDS011;29429;51.074;13.764;2022-07-23T04:05:26;5.10;;;4.60;;
43801;SDS011;29429;51.074;13.764;2022-07-23T04:08:02;5.10;;;4.60;;
43801;SDS011;29429;51.074;13.764;2022-07-23T04:10:30;4.63;;;4.10;;
43801;SDS011;29429;51.074;13.764;2022-07-23T04:12:57;4.45;;;3.83;;
43801;SDS011;29429;51.074;13.764;2022-07-23T04:15:24;4.53;;;4.03;;
43801;SDS011;29429;51.074;13.764;2022-07-23T04:17:51;12.48;;;4.72;;
43801;SDS011;29429;51.074;13.764;2022-07-23T04:20:19;18.00;;;5.65;;
43801;SDS011;29429;51.074;13.764;2022-07-23T04:22:53;15.07;;;5.25;;
43801;SDS011;29429;51.074;13.764;2022-07-23T04:25:21;10.38;;;5.03;;
43801;SDS011;29429;51.074;13.764;2022-07-23T04:27:48;14.23;;;5.22;;
43801;SDS011;29429;51.074;13.764;2022-07-23T04:30:16;8.20;;;4.70;;
43801;SDS011;29429;51.074;13.764;2022-07-23T04:32:43;4.70;;;4.18;;
43801;SDS011;29429;51.074;13.764;2022-07-23T04:35:19;6.32;;;4.65;;
43801;SDS011;29429;51.074;13.764;2022-07-23T04:37:46;4.85;;;4.35;;
43801;SDS011;29429;51.074;13.764;2022-07-23T04:40:15;4.70;;;4.18;;
43801;SDS011;29429;51.074;13.764;2022-07-23T04:42:42;5.53;;;4.65;;
43801;SDS011;29429;51.074;13.764;2022-07-23T04:45:09;4.75;;;4.32;;
43801;SDS011;29429;51.074;13.764;2022-07-23T04:47:39;5.70;;;4.85;;
43801;SDS011;29429;51.074;13.764;2022-07-23T04:50:06;5.25;;;4.55;;
43801;SDS011;29429;51.074;13.764;2022-07-23T04:52:35;5.72;;;4.75;;
43801;SDS011;29429;51.074;13.764;2022-07-23T04:55:03;8.20;;;4.85;;
43801;SDS011;29429;51.074;13.764;2022-07-23T04:57:32;6.05;;;4.55;;
43801;SDS011;29429;51.074;13.764;2022-07-23T04:59:58;6.78;;;4.43;;
43801;SDS011;29429;51.074;13.764;2022-07-23T05:02:25;6.75;;;4.60;;
43801;SDS011;29429;51.074;13.764;2022-07-23T05:04:52;7.13;;;4.35;;
43801;SDS011;29429;51.074;13.764;2022-07-23T05:07:20;7.57;;;4.10;;
43801;SDS011;29429;51.074;13.764;2022-07-23T05:09:47;8.85;;;4.50;;
43801;SDS011;29429;51.074;13.764;2022-07-23T05:12:14;5.82;;;4.45;;
43801;SDS011;29429;51.074;13.764;2022-07-23T05:14:42;10.55;;;4.10;;
43801;SDS011;29429;51.074;13.764;2022-07-23T05:17:09;6.93;;;4.15;;
43801;SDS011;29429;51.074;13.764;2022-07-23T05:19:36;4.78;;;3.83;;
43801;SDS011;29429;51.074;13.764;2022-07-23T05:22:03;4.15;;;3.75;;
43801;SDS011;29429;51.074;13.764;2022-07-23T05:24:30;6.43;;;4.38;;
43801;SDS011;29429;51.074;13.764;2022-07-23T05:26:57;6.30;;;4.25;;
43801;SDS011;29429;51.074;13.764;2022-07-23T05:29:25;5.80;;;4.22;;
43801;SDS011;29429;51.074;13.764;2022-07-23T05:31:52;3.97;;;3.45;;
43801;SDS011;29429;51.074;13.764;2022-07-23T05:34:21;6.63;;;4.18;;
43801;SDS011;29429;51.074;13.764;2022-07-23T05:36:48;6.70;;;4.10;;
43801;SDS011;29429;51.074;13.764;2022-07-23T05:39:15;6.10;;;3.53;;
43801;SDS011;29429;51.074;13.764;2022-07-23T05:41:42;6.55;;;3.97;;
43801;SDS011;29429;51.074;13.764;2022-07-23T05:44:09;5.00;;;4.05;;
43801;SDS011;29429;51.074;13.764;2022-07-23T05:46:39;5.88;;;4.13;;
43801;SDS011;29429;51.074;13.764;2022-07-23T05:49:09;6.40;;;3.75;;
43801;SDS011;29429;51.074;13.764;2022-07-23T05:52:10;4.60;;;3.97;;
43801;SDS011;29429;51.074;13.764;2022-07-23T05:54:54;5.88;;;4.05;;
43801;SDS011;29429;51.074;13.764;2022-07-23T05:57:21;6.10;;;4.13;;
43801;SDS011;29429;51.074;13.764;2022-07-23T05:59:51;4.85;;;4.10;;
43801;SDS011;29429;51.074;13.764;2022-07-23T06:02:18;4.35;;;3.95;;
43801;SDS011;29429;51.074;13.764;2022-07-23T06:04:46;4.03;;;3.60;;
43801;SDS011;29429;51.074;13.764;2022-07-23T06:07:24;6.72;;;3.78;;
43801;SDS011;29429;51.074;13.764;2022-07-23T06:09:51;5.70;;;3.47;;
43801;SDS011;29429;51.074;13.764;2022-07-23T06:12:18;5.35;;;4.18;;
43801;SDS011;29429;51.074;13.764;2022-07-23T06:14:45;4.03;;;3.63;;
43801;SDS011;29429;51.074;13.764;2022-07-23T06:17:15;5.93;;;4.22;;
43801;SDS011;29429;51.074;13.764;2022-07-23T06:19:42;4.85;;;4.38;;
43801;SDS011;29429;51.074;13.764;2022-07-23T06:22:09;11.40;;;4.45;;
43801;SDS011;29429;51.074;13.764;2022-07-23T06:24:36;7.55;;;4.50;;
43801;SDS011;29429;51.074;13.764;2022-07-23T06:27:04;7.38;;;4.22;;
43801;SDS011;29429;51.074;13.764;2022-07-23T06:29:31;7.22;;;5.32;;
43801;SDS011;29429;51.074;13.764;2022-07-23T06:31:58;5.32;;;4.82;;
43801;SDS011;29429;51.074;13.764;2022-07-23T06:34:25;6.22;;;5.13;;
43801;SDS011;29429;51.074;13.764;2022-07-23T06:36:54;7.28;;;4.60;;
43801;SDS011;29429;51.074;13.764;2022-07-23T06:39:21;7.85;;;4.55;;
43801;SDS011;29429;51.074;13.764;2022-07-23T06:41:48;6.97;;;5.13;;
43801;SDS011;29429;51.074;13.764;2022-07-23T06:44:56;10.05;;;5.32;;
43801;SDS011;29429;51.074;13.764;2022-07-23T06:47:23;5.30;;;4.80;;
43801;SDS011;29429;51.074;13.764;2022-07-23T06:49:50;6.47;;;5.05;;
43801;SDS011;29429;51.074;13.764;2022-07-23T06:52:17;7.03;;;5.20;;
43801;SDS011;29429;51.074;13.764;2022-07-23T06:54:44;6.63;;;5.55;;
43801;SDS011;29429;51.074;13.764;2022-07-23T06:57:11;6.45;;;5.60;;
43801;SDS011;29429;51.074;13.764;2022-07-23T06:59:38;6.93;;;5.45;;
43801;SDS011;29429;51.074;13.764;2022-07-23T07:02:07;7.18;;;5.97;;
43801;SDS011;29429;51.074;13.764;2022-07-23T07:04:34;6.28;;;5.63;;
43801;SDS011;29429;51.074;13.764;2022-07-23T07:07:02;7.57;;;6.15;;
43801;SDS011;29429;51.074;13.764;2022-07-23T07:09:29;6.05;;;5.40;;
43801;SDS011;29429;51.074;13.764;2022-07-23T07:11:56;7.22;;;6.40;;
43801;SDS011;29429;51.074;13.764;2022-07-23T07:14:23;7.45;;;5.68;;
43801;SDS011;29429;51.074;13.764;2022-07-23T07:16:49;7.45;;;6.50;;
43801;SDS011;29429;51.074;13.764;2022-07-23T07:19:16;8.10;;;6.25;;
43801;SDS011;29429;51.074;13.764;2022-07-23T07:21:43;12.30;;;6.20;;
43801;SDS011;29429;51.074;13.764;2022-07-23T07:24:10;12.68;;;6.63;;
43801;SDS011;29429;51.074;13.764;2022-07-23T07:26:37;7.07;;;6.10;;
43801;SDS011;29429;51.074;13.764;2022-07-23T07:29:05;7.80;;;5.57;;
43801;SDS011;29429;51.074;13.764;2022-07-23T07:31:33;8.73;;;5.43;;
43801;SDS011;29429;51.074;13.764;2022-07-23T07:33:59;7.10;;;6.00;;
43801;SDS011;29429;51.074;13.764;2022-07-23T07:36:26;6.07;;;5.43;;
43801;SDS011;29429;51.074;13.764;2022-07-23T07:38:53;6.65;;;5.18;;
43801;SDS011;29429;51.074;13.764;2022-07-23T07:41:20;6.63;;;5.28;;
43801;SDS011;29429;51.074;13.764;2022-07-23T07:43:52;6.53;;;5.20;;
43801;SDS011;29429;51.074;13.764;2022-07-23T07:46:19;6.57;;;5.45;;
43801;SDS011;29429;51.074;13.764;2022-07-23T07:48:46;6.53;;;5.00;;
43801;SDS011;29429;51.074;13.764;2022-07-23T07:51:13;7.88;;;5.70;;
43801;SDS011;29429;51.074;13.764;2022-07-23T07:53:40;7.47;;;5.07;;
43801;SDS011;29429;51.074;13.764;2022-07-23T07:56:07;6.68;;;4.75;;
43801;SDS011;29429;51.074;13.764;2022-07-23T07:58:35;5.22;;;4.72;;
43801;SDS011;29429;51.074;13.764;2022-07-23T08:01:02;6.53;;;5.15;;
43801;SDS011;29429;51.074;13.764;2022-07-23T08:03:30;7.85;;;4.88;;
43801;SDS011;29429;51.074;13.764;2022-07-23T08:05:57;5.75;;;4.68;;
43801;SDS011;29429;51.074;13.764;2022-07-23T08:08:25;4.70;;;4.05;;
43801;SDS011;29429;51.074;13.764;2022-07-23T08:10:51;6.03;;;4.38;;
43801;SDS011;29429;51.074;13.764;2022-07-23T08:13:18;7.82;;;4.45;;
43801;SDS011;29429;51.074;13.764;2022-07-23T08:15:45;5.47;;;4.43;;
43801;SDS011;29429;51.074;13.764;2022-07-23T08:18:14;7.78;;;4.88;;
43801;SDS011;29429;51.074;13.764;2022-07-23T08:20:40;4.95;;;4.43;;
43801;SDS011;29429;51.074;13.764;2022-07-23T08:23:08;6.00;;;4.15;;
43801;SDS011;29429;51.074;13.764;2022-07-23T08:25:40;5.68;;;3.97;;
43801;SDS011;29429;51.074;13.764;2022-07-23T08:28:09;5.45;;;3.78;;
43801;SDS011;29429;51.074;13.764;2022-07-23T08:30:39;4.50;;;4.10;;
43801;SDS011;29429;51.074;13.764;2022-07-23T08:33:09;7.72;;;5.03;;
43801;SDS011;29429;51.074;13.764;2022-07-23T08:36:00;5.43;;;4.32;;
43801;SDS011;29429;51.074;13.764;2022-07-23T08:38:30;5.55;;;4.82;;
43801;SDS011;29429;51.074;13.764;2022-07-23T08:40:58;6.00;;;4.97;;
43801;SDS011;29429;51.074;13.764;2022-07-23T08:43:26;5.70;;;4.07;;
43801;SDS011;29429;51.074;13.764;2022-07-23T08:45:57;5.65;;;4.57;;
43801;SDS011;29429;51.074;13.764;2022-07-23T08:48:30;5.90;;;4.13;;
43801;SDS011;29429;51.074;13.764;2022-07-23T08:51:05;4.55;;;3.97;;
43801;SDS011;29429;51.074;13.764;2022-07-23T08:53:33;4.50;;;3.90;;
43801;SDS011;29429;51.074;13.764;2022-07-23T08:56:05;4.53;;;3.88;;
43801;SDS011;29429;51.074;13.764;2022-07-23T08:58:34;4.57;;;3.40;;
43801;SDS011;29429;51.074;13.764;2022-07-23T09:01:01;3.63;;;3.33;;
43801;SDS011;29429;51.074;13.764;2022-07-23T09:03:29;4.43;;;3.67;;
43801;SDS011;29429;51.074;13.764;2022-07-23T09:06:02;4.03;;;3.03;;
43801;SDS011;29429;51.074;13.764;2022-07-23T09:11:06;4.72;;;4.28;;
43801;SDS011;29429;51.074;13.764;2022-07-23T09:13:40;4.53;;;3.58;;
43801;SDS011;29429;51.074;13.764;2022-07-23T09:19:04;4.90;;;3.97;;
43801;SDS011;29429;51.074;13.764;2022-07-23T09:21:34;7.38;;;4.45;;
43801;SDS011;29429;51.074;13.764;2022-07-23T09:26:43;4.00;;;3.60;;
43801;SDS011;29429;51.074;13.764;2022-07-23T09:29:21;4.93;;;4.30;;
43801;SDS011;29429;51.074;13.764;2022-07-23T09:37:11;4.53;;;4.13;;
43801;SDS011;29429;51.074;13.764;2022-07-23T09:39:41;5.18;;;4.68;;
43801;SDS011;29429;51.074;13.764;2022-07-23T09:44:46;6.32;;;4.18;;
43801;SDS011;29429;51.074;13.764;2022-07-23T09:47:16;5.57;;;4.63;;
43801;SDS011;29429;51.074;13.764;2022-07-23T09:52:36;4.90;;;4.18;;
43801;SDS011;29429;51.074;13.764;2022-07-23T09:55:14;6.45;;;4.70;;
43801;SDS011;29429;51.074;13.764;2022-07-23T09:57:44;5.95;;;4.35;;
43801;SDS011;29429;51.074;13.764;2022-07-23T10:00:16;4.68;;;4.10;;
43801;SDS011;29429;51.074;13.764;2022-07-23T10:02:42;5.22;;;4.30;;
43801;SDS011;29429;51.074;13.764;2022-07-23T10:05:25;5.40;;;4.28;;
43801;SDS011;29429;51.074;13.764;2022-07-23T10:08:13;6.22;;;4.10;;
43801;SDS011;29429;51.074;13.764;2022-07-23T10:11:03;4.53;;;4.10;;
43801;SDS011;29429;51.074;13.764;2022-07-23T10:14:00;4.47;;;4.07;;
43801;SDS011;29429;51.074;13.764;2022-07-23T10:16:50;4.30;;;3.90;;
43801;SDS011;29429;51.074;13.764;2022-07-23T10:19:18;5.10;;;4.00;;
43801;SDS011;29429;51.074;13.764;2022-07-23T10:21:49;7.05;;;4.10;;
43801;SDS011;29429;51.074;13.764;2022-07-23T10:33:21;5.53;;;4.63;;
43801;SDS011;29429;51.074;13.764;2022-07-23T10:36:37;5.82;;;4.70;;
43801;SDS011;29429;51.074;13.764;2022-07-23T10:39:15;5.32;;;4.82;;
43801;SDS011;29429;51.074;13.764;2022-07-23T10:42:16;5.97;;;4.53;;
43801;SDS011;29429;51.074;13.764;2022-07-23T10:44:44;6.03;;;4.50;;
43801;SDS011;29429;51.074;13.764;2022-07-23T10:47:29;6.03;;;5.38;;
43801;SDS011;29429;51.074;13.764;2022-07-23T10:58:03;6.10;;;4.45;;
43801;SDS011;29429;51.074;13.764;2022-07-23T11:00:32;4.75;;;4.20;;
43801;SDS011;29429;51.074;13.764;2022-07-23T11:03:06;6.18;;;5.07;;
43801;SDS011;29429;51.074;13.764;2022-07-23T11:06:02;5.78;;;5.18;;
43801;SDS011;29429;51.074;13.764;2022-07-23T11:08:30;7.35;;;4.55;;
43801;SDS011;29429;51.074;13.764;2022-07-23T11:13:31;4.85;;;4.35;;
43801;SDS011;29429;51.074;13.764;2022-07-23T11:16:05;4.32;;;3.85;;
43801;SDS011;29429;51.074;13.764;2022-07-23T11:24:14;5.93;;;4.05;;
43801;SDS011;29429;51.074;13.764;2022-07-23T11:31:54;5.00;;;3.95;;
43801;SDS011;29429;51.074;13.764;2022-07-23T11:34:53;4.13;;;3.72;;
43801;SDS011;29429;51.074;13.764;2022-07-23T11:37:27;4.72;;;3.67;;
43801;SDS011;29429;51.074;13.764;2022-07-23T11:40:04;4.75;;;3.72;;
43801;SDS011;29429;51.074;13.764;2022-07-23T11:43:03;5.65;;;4.60;;
43801;SDS011;29429;51.074;13.764;2022-07-23T11:45:34;4.97;;;4.32;;
43801;SDS011;29429;51.074;13.764;2022-07-23T11:48:06;4.80;;;4.00;;
43801;SDS011;29429;51.074;13.764;2022-07-23T11:50:36;4.85;;;4.05;;
43801;SDS011;29429;51.074;13.764;2022-07-23T11:53:03;7.05;;;4.35;;
43801;SDS011;29429;51.074;13.764;2022-07-23T11:55:30;6.70;;;4.35;;
43801;SDS011;29429;51.074;13.764;2022-07-23T11:57:57;7.13;;;4.65;;
43801;SDS011;29429;51.074;13.764;2022-07-23T12:00:28;5.55;;;4.20;;
43801;SDS011;29429;51.074;13.764;2022-07-23T12:02:58;4.53;;;3.95;;
43801;SDS011;29429;51.074;13.764;2022-07-23T12:05:29;5.35;;;4.18;;
43801;SDS011;29429;51.074;13.764;2022-07-23T12:08:04;4.78;;;4.35;;
43801;SDS011;29429;51.074;13.764;2022-07-23T12:10:40;8.68;;;5.18;;
43801;SDS011;29429;51.074;13.764;2022-07-23T12:13:11;9.18;;;6.53;;
43801;SDS011;29429;51.074;13.764;2022-07-23T12:15:42;6.22;;;5.20;;
43801;SDS011;29429;51.074;13.764;2022-07-23T12:18:13;7.18;;;5.80;;
43801;SDS011;29429;51.074;13.764;2022-07-23T12:20:50;6.50;;;5.25;;
43801;SDS011;29429;51.074;13.764;2022-07-23T12:23:23;5.78;;;4.93;;
43801;SDS011;29429;51.074;13.764;2022-07-23T12:25:52;7.10;;;5.00;;
43801;SDS011;29429;51.074;13.764;2022-07-23T12:28:30;6.63;;;5.13;;
43801;SDS011;29429;51.074;13.764;2022-07-23T12:31:00;8.10;;;5.07;;
43801;SDS011;29429;51.074;13.764;2022-07-23T12:33:33;6.93;;;5.53;;
43801;SDS011;29429;51.074;13.764;2022-07-23T12:36:05;7.55;;;5.53;;
43801;SDS011;29429;51.074;13.764;2022-07-23T12:38:38;5.60;;;5.10;;
43801;SDS011;29429;51.074;13.764;2022-07-23T12:41:09;5.68;;;5.18;;
43801;SDS011;29429;51.074;13.764;2022-07-23T12:43:37;6.03;;;5.13;;
43801;SDS011;29429;51.074;13.764;2022-07-23T12:46:11;5.28;;;4.63;;
43801;SDS011;29429;51.074;13.764;2022-07-23T12:54:05;6.97;;;4.50;;
43801;SDS011;29429;51.074;13.764;2022-07-23T12:56:38;5.47;;;4.97;;
43801;SDS011;29429;51.074;13.764;2022-07-23T12:59:14;4.90;;;4.40;;
43801;SDS011;29429;51.074;13.764;2022-07-23T13:01:45;6.22;;;4.78;;
43801;SDS011;29429;51.074;13.764;2022-07-23T13:04:22;7.53;;;4.63;;
43801;SDS011;29429;51.074;13.764;2022-07-23T13:06:51;4.93;;;4.40;;
43801;SDS011;29429;51.074;13.764;2022-07-23T13:09:26;5.10;;;4.60;;
43801;SDS011;29429;51.074;13.764;2022-07-23T13:11:59;6.75;;;4.70;;
43801;SDS011;29429;51.074;13.764;2022-07-23T13:14:27;6.00;;;4.90;;
43801;SDS011;29429;51.074;13.764;2022-07-23T13:16:55;6.47;;;4.97;;
43801;SDS011;29429;51.074;13.764;2022-07-23T13:19:25;5.63;;;4.68;;
43801;SDS011;29429;51.074;13.764;2022-07-23T13:21:53;7.25;;;4.70;;
43801;SDS011;29429;51.074;13.764;2022-07-23T13:24:21;5.28;;;4.78;;
43801;SDS011;29429;51.074;13.764;2022-07-23T13:26:48;6.13;;;4.80;;
43801;SDS011;29429;51.074;13.764;2022-07-23T13:29:17;5.20;;;4.72;;
43801;SDS011;29429;51.074;13.764;2022-07-23T13:31:46;5.38;;;4.88;;
43801;SDS011;29429;51.074;13.764;2022-07-23T13:34:14;5.88;;;4.82;;
43801;SDS011;29429;51.074;13.764;2022-07-23T13:36:41;5.43;;;4.60;;
43801;SDS011;29429;51.074;13.764;2022-07-23T13:39:09;5.35;;;4.82;;
43801;SDS011;29429;51.074;13.764;2022-07-23T13:41:37;5.30;;;4.80;;
43801;SDS011;29429;51.074;13.764;2022-07-23T13:44:05;5.43;;;4.88;;
43801;SDS011;29429;51.074;13.764;2022-07-23T13:46:33;5.53;;;4.28;;
43801;SDS011;29429;51.074;13.764;2022-07-23T13:49:01;5.28;;;4.78;;
43801;SDS011;29429;51.074;13.764;2022-07-23T13:51:32;7.00;;;4.88;;
43801;SDS011;29429;51.074;13.764;2022-07-23T13:55:17;6.05;;;4.88;;
43801;SDS011;29429;51.074;13.764;2022-07-23T13:57:44;6.53;;;5.30;;
43801;SDS011;29429;51.074;13.764;2022-07-23T14:00:14;5.00;;;4.50;;
43801;SDS011;29429;51.074;13.764;2022-07-23T14:03:03;6.15;;;5.20;;
43801;SDS011;29429;51.074;13.764;2022-07-23T14:05:30;5.20;;;4.70;;
43801;SDS011;29429;51.074;13.764;2022-07-23T14:07:59;6.63;;;5.10;;
43801;SDS011;29429;51.074;13.764;2022-07-23T14:10:26;5.45;;;4.70;;
43801;SDS011;29429;51.074;13.764;2022-07-23T14:12:53;5.55;;;4.95;;
43801;SDS011;29429;51.074;13.764;2022-07-23T14:15:22;6.03;;;5.22;;
43801;SDS011;29429;51.074;13.764;2022-07-23T14:17:55;6.88;;;5.30;;
43801;SDS011;29429;51.074;13.764;2022-07-23T14:21:17;5.18;;;4.78;;
43801;SDS011;29429;51.074;13.764;2022-07-23T14:23:44;5.50;;;5.00;;
43801;SDS011;29429;51.074;13.764;2022-07-23T14:26:11;6.50;;;4.82;;
43801;SDS011;29429;51.074;13.764;2022-07-23T14:28:40;6.47;;;4.50;;
43801;SDS011;29429;51.074;13.764;2022-07-23T14:31:07;5.70;;;4.28;;
43801;SDS011;29429;51.074;13.764;2022-07-23T14:33:46;6.78;;;4.70;;
43801;SDS011;29429;51.074;13.764;2022-07-23T14:36:13;7.97;;;5.03;;
43801;SDS011;29429;51.074;13.764;2022-07-23T14:38:41;5.72;;;4.97;;
43801;SDS011;29429;51.074;13.764;2022-07-23T14:41:08;5.22;;;4.72;;
43801;SDS011;29429;51.074;13.764;2022-07-23T14:43:37;4.97;;;4.45;;
43801;SDS011;29429;51.074;13.764;2022-07-23T14:46:04;5.72;;;5.10;;
43801;SDS011;29429;51.074;13.764;2022-07-23T14:48:31;7.55;;;4.70;;
43801;SDS011;29429;51.074;13.764;2022-07-23T14:50:58;7.07;;;4.70;;
43801;SDS011;29429;51.074;13.764;2022-07-23T14:53:25;6.88;;;4.68;;
43801;SDS011;29429;51.074;13.764;2022-07-23T14:55:52;7.78;;;4.93;;
43801;SDS011;29429;51.074;13.764;2022-07-23T14:58:20;6.20;;;4.93;;
43801;SDS011;29429;51.074;13.764;2022-07-23T15:00:47;5.70;;;5.20;;
43801;SDS011;29429;51.074;13.764;2022-07-23T15:03:15;6.30;;;5.03;;
43801;SDS011;29429;51.074;13.764;2022-07-23T15:05:42;5.22;;;4.72;;
43801;SDS011;29429;51.074;13.764;2022-07-23T15:08:09;6.90;;;5.68;;
43801;SDS011;29429;51.074;13.764;2022-07-23T15:10:36;5.55;;;4.95;;
43801;SDS011;29429;51.074;13.764;2022-07-23T15:13:03;5.57;;;4.80;;
43801;SDS011;29429;51.074;13.764;2022-07-23T15:15:33;8.52;;;5.13;;
43801;SDS011;29429;51.074;13.764;2022-07-23T15:18:01;8.05;;;5.60;;
43801;SDS011;29429;51.074;13.764;2022-07-23T15:20:27;6.35;;;5.30;;
43801;SDS011;29429;51.074;13.764;2022-07-23T15:23:01;5.80;;;5.28;;
43801;SDS011;29429;51.074;13.764;2022-07-23T15:25:28;6.50;;;5.10;;
43801;SDS011;29429;51.074;13.764;2022-07-23T15:27:59;6.88;;;6.07;;
43801;SDS011;29429;51.074;13.764;2022-07-23T15:30:26;7.03;;;5.68;;
43801;SDS011;29429;51.074;13.764;2022-07-23T15:32:54;6.78;;;6.10;;
43801;SDS011;29429;51.074;13.764;2022-07-23T15:35:21;7.10;;;6.40;;
43801;SDS011;29429;51.074;13.764;2022-07-23T15:37:48;7.65;;;6.32;;
43801;SDS011;29429;51.074;13.764;2022-07-23T15:40:15;7.72;;;6.38;;
43801;SDS011;29429;51.074;13.764;2022-07-23T15:42:44;6.97;;;6.28;;
43801;SDS011;29429;51.074;13.764;2022-07-23T15:45:11;7.35;;;5.88;;